createdAt,value
2023-11-07T00:00:33.138Z,88.20
2023-11-07T00:01:35.219Z,88.15
2023-11-07T00:02:37.435Z,88.20
2023-11-07T00:03:39.493Z,88.13
2023-11-07T00:04:43.056Z,88.48
2023-11-07T00:05:45.151Z,88.38
2023-11-07T00:06:47.164Z,88.19
2023-11-07T00:07:49.547Z,87.82
2023-11-07T00:08:52.759Z,88.08
2023-11-07T00:09:56.178Z,88.29
2023-11-07T00:10:58.154Z,88.01
2023-11-07T00:12:00.661Z,88.38
2023-11-07T00:13:02.707Z,88.35
2023-11-07T00:14:04.799Z,88.32
2023-11-07T00:15:07.553Z,88.17
2023-11-07T00:16:11.452Z,88.41
2023-11-07T00:17:13.661Z,88.01
2023-11-07T00:18:15.826Z,88.31
2023-11-07T00:19:18.320Z,88.11
2023-11-07T00:20:20.744Z,88.36
2023-11-07T00:21:23.800Z,88.33
2023-11-07T00:22:25.985Z,88.13
2023-11-07T00:23:27.973Z,88.26
2023-11-07T00:24:30.193Z,88.30
2023-11-07T00:25:33.280Z,87.96
2023-11-07T00:26:35.380Z,88.31
2023-11-07T00:27:37.413Z,88.04
2023-11-07T00:28:39.587Z,88.29
2023-11-07T00:29:41.709Z,88.16
2023-11-07T00:30:43.975Z,88.16
2023-11-07T00:31:46.028Z,87.96
2023-11-07T00:32:48.371Z,88.07
2023-11-07T00:33:50.703Z,87.74
2023-11-07T00:34:52.903Z,88.06
2023-11-07T00:35:54.938Z,87.90
2023-11-07T00:36:57.414Z,87.96
2023-11-07T00:38:00.368Z,87.93
2023-11-07T00:39:03.050Z,88.27
2023-11-07T00:40:08.061Z,87.71
2023-11-07T00:41:11.278Z,87.78
2023-11-07T00:42:13.575Z,87.60
2023-11-07T00:43:15.812Z,87.93
2023-11-07T00:44:19.575Z,87.75
2023-11-07T00:45:21.784Z,87.74
2023-11-07T00:46:23.758Z,87.47
2023-11-07T00:47:26.064Z,87.81
2023-11-07T00:48:28.805Z,87.56
2023-11-07T00:49:30.942Z,87.66
2023-11-07T00:50:33.731Z,87.60
2023-11-07T00:51:36.839Z,87.99
2023-11-07T00:52:39.837Z,87.67
2023-11-07T00:53:41.998Z,87.58
2023-11-07T00:54:45.366Z,87.59
2023-11-07T00:55:47.592Z,87.54
2023-11-07T00:56:49.758Z,87.83
2023-11-07T00:57:51.863Z,88.04
2023-11-07T01:00:17.665Z,87.88
2023-11-07T01:01:19.759Z,88.01
2023-11-07T01:02:21.961Z,87.94
2023-11-07T01:03:24.187Z,87.90
2023-11-07T01:04:26.310Z,87.96
2023-11-07T01:05:28.567Z,87.76
2023-11-07T01:06:30.718Z,87.89
2023-11-07T01:07:32.871Z,87.91
2023-11-07T01:08:34.971Z,87.94
2023-11-07T01:09:37.110Z,87.83
2023-11-07T01:10:39.009Z,88.25
2023-11-07T01:11:41.580Z,88.30
2023-11-07T01:12:43.628Z,87.94
2023-11-07T01:13:45.885Z,88.19
2023-11-07T01:14:48.047Z,88.04
2023-11-07T01:15:50.228Z,88.06
2023-11-07T01:16:52.811Z,87.95
2023-11-07T01:17:55.089Z,87.92
2023-11-07T01:18:57.265Z,87.93
2023-11-07T01:19:59.586Z,88.25
2023-11-07T01:21:01.590Z,87.86
2023-11-07T01:22:03.996Z,88.12
2023-11-07T01:23:06.007Z,87.90
2023-11-07T01:24:09.107Z,87.63
2023-11-07T01:25:11.758Z,87.46
2023-11-07T01:26:14.033Z,87.67
2023-11-07T01:27:16.059Z,87.39
2023-11-07T01:28:21.984Z,87.40
2023-11-07T01:29:24.091Z,87.39
2023-11-07T01:30:26.231Z,87.58
2023-11-07T01:31:28.199Z,87.48
2023-11-07T01:32:30.323Z,87.30
2023-11-07T01:33:32.626Z,87.31
2023-11-07T01:34:34.883Z,87.63
2023-11-07T01:35:36.932Z,87.62
2023-11-07T01:36:38.947Z,87.35
2023-11-07T01:37:40.897Z,87.26
2023-11-07T01:38:43.066Z,87.22
2023-11-07T01:39:45.134Z,87.19
2023-11-07T01:40:47.156Z,86.74
2023-11-07T01:41:49.228Z,86.99
2023-11-07T01:42:51.441Z,87.35
2023-11-07T01:43:53.506Z,87.09
2023-11-07T01:44:55.852Z,87.35
2023-11-07T01:46:01.762Z,87.23
2023-11-07T01:47:04.061Z,87.09
2023-11-07T01:48:09.738Z,87.51
2023-11-07T01:49:12.383Z,87.39
2023-11-07T01:50:17.939Z,87.16
2023-11-07T01:51:20.146Z,87.51
2023-11-07T01:52:22.625Z,87.64
2023-11-07T01:53:25.525Z,87.77
2023-11-07T01:54:29.038Z,87.35
2023-11-07T01:55:31.632Z,87.31
2023-11-07T01:56:33.694Z,87.71
2023-11-07T01:57:36.768Z,87.72
2023-11-07T01:58:38.869Z,87.84
2023-11-07T01:59:41.920Z,87.78
2023-11-07T02:00:45.398Z,87.85
2023-11-07T02:01:49.339Z,87.75
2023-11-07T02:02:51.683Z,88.04
2023-11-07T02:03:54.903Z,87.97
2023-11-07T02:04:57.757Z,87.79
2023-11-07T02:06:00.280Z,87.95
2023-11-07T02:07:02.418Z,88.04
2023-11-07T02:08:06.873Z,88.00
2023-11-07T02:09:09.796Z,87.63
2023-11-07T02:10:12.074Z,87.55
2023-11-07T02:11:14.159Z,87.42
2023-11-07T02:12:16.438Z,87.78
2023-11-07T02:13:18.926Z,87.46
2023-11-07T02:14:31.319Z,87.69
2023-11-07T02:15:36.402Z,88.21
2023-11-07T02:16:38.686Z,87.73
2023-11-07T02:17:40.806Z,88.16
2023-11-07T02:18:43.388Z,88.42
2023-11-07T02:19:45.495Z,88.14
2023-11-07T02:20:47.643Z,88.22
2023-11-07T02:21:53.084Z,88.23
2023-11-07T02:23:03.944Z,88.20
2023-11-07T02:24:08.182Z,88.28
2023-11-07T02:25:14.633Z,88.06
2023-11-07T02:26:16.973Z,88.38
2023-11-07T02:27:20.237Z,88.49
2023-11-07T02:28:22.361Z,88.14
2023-11-07T02:29:24.548Z,88.35
2023-11-07T02:30:26.792Z,88.24
2023-11-07T02:31:28.900Z,88.26
2023-11-07T02:32:31.524Z,88.51
2023-11-07T02:33:34.441Z,88.36
2023-11-07T02:34:37.278Z,88.52
2023-11-07T02:35:39.652Z,88.77
2023-11-07T02:36:42.011Z,88.53
2023-11-07T02:37:48.208Z,88.16
2023-11-07T02:38:50.389Z,88.65
2023-11-07T02:39:52.661Z,88.46
2023-11-07T02:40:54.625Z,88.88
2023-11-07T02:41:56.998Z,88.70
2023-11-07T02:43:01.688Z,88.92
2023-11-07T02:44:04.031Z,88.80
2023-11-07T02:45:07.100Z,88.58
2023-11-07T02:46:10.903Z,88.92
2023-11-07T02:47:12.963Z,88.37
2023-11-07T02:48:15.901Z,88.33
2023-11-07T02:49:18.101Z,88.57
2023-11-07T02:50:20.367Z,88.64
2023-11-07T02:51:24.216Z,88.40
2023-11-07T02:52:26.535Z,88.62
2023-11-07T02:53:28.556Z,88.66
2023-11-07T02:54:30.594Z,89.02
2023-11-07T02:55:33.292Z,88.66
2023-11-07T02:56:35.781Z,88.53
2023-11-07T02:57:37.892Z,88.97
2023-11-07T02:58:40.094Z,88.38
2023-11-07T02:59:45.562Z,88.87
2023-11-07T03:00:47.687Z,88.23
2023-11-07T03:01:52.751Z,88.57
2023-11-07T03:02:54.989Z,88.58
2023-11-07T03:03:59.382Z,88.31
2023-11-07T03:05:01.454Z,88.53
2023-11-07T03:06:03.811Z,88.10
2023-11-07T03:07:06.142Z,88.57
2023-11-07T03:08:09.064Z,88.47
2023-11-07T03:09:11.745Z,88.43
2023-11-07T03:10:14.543Z,88.31
2023-11-07T03:11:16.568Z,88.70
2023-11-07T03:12:18.799Z,88.41
2023-11-07T03:13:21.686Z,88.47
2023-11-07T03:14:23.679Z,88.44
2023-11-07T03:15:25.852Z,88.79
2023-11-07T03:16:28.025Z,88.87
2023-11-07T03:17:30.333Z,88.73
2023-11-07T03:18:32.672Z,88.91
2023-11-07T03:19:35.091Z,88.49
2023-11-07T03:20:37.629Z,88.57
2023-11-07T03:21:41.432Z,88.79
2023-11-07T03:22:43.778Z,88.06
2023-11-07T03:23:46.493Z,88.28
2023-11-07T03:24:49.742Z,88.67
2023-11-07T03:25:53.994Z,88.69
2023-11-07T03:26:55.807Z,88.49
2023-11-07T03:27:58.551Z,88.35
2023-11-07T03:29:00.549Z,88.27
2023-11-07T03:30:02.611Z,88.34
2023-11-07T03:31:07.397Z,88.19
2023-11-07T03:32:09.497Z,88.10
2023-11-07T03:33:11.709Z,88.27
2023-11-07T03:34:13.793Z,88.04
2023-11-07T03:35:15.932Z,88.27
2023-11-07T03:36:17.963Z,88.08
2023-11-07T03:37:20.058Z,87.90
2023-11-07T03:38:22.014Z,87.91
2023-11-07T03:39:24.025Z,88.13
2023-11-07T03:40:26.104Z,87.77
2023-11-07T03:41:29.211Z,88.04
2023-11-07T03:42:31.216Z,88.10
2023-11-07T03:43:35.148Z,88.21
2023-11-07T03:44:38.059Z,87.67
2023-11-07T03:45:40.170Z,87.74
2023-11-07T03:46:42.742Z,87.69
2023-11-07T03:47:45.087Z,87.86
2023-11-07T03:48:47.524Z,88.09
2023-11-07T03:49:49.598Z,87.87
2023-11-07T03:50:54.774Z,87.83
2023-11-07T03:51:56.851Z,87.97
2023-11-07T03:52:58.840Z,88.08
2023-11-07T03:54:01.035Z,87.81
2023-11-07T03:55:04.613Z,88.09
2023-11-07T03:56:07.521Z,87.89
2023-11-07T03:57:09.556Z,87.72
2023-11-07T03:58:11.707Z,88.00
2023-11-07T03:59:13.732Z,87.78
2023-11-07T04:00:16.207Z,87.66
2023-11-07T04:01:18.480Z,87.95
2023-11-07T04:02:20.744Z,88.00
2023-11-07T04:03:23.604Z,88.02
2023-11-07T04:04:25.804Z,88.27
2023-11-07T04:05:29.588Z,88.11
2023-11-07T04:06:32.072Z,88.31
2023-11-07T04:07:34.198Z,88.30
2023-11-07T04:08:36.367Z,88.37
2023-11-07T04:09:38.933Z,88.38
2023-11-07T04:10:41.026Z,88.46
2023-11-07T04:11:43.580Z,88.52
2023-11-07T04:12:45.753Z,88.84
2023-11-07T04:13:49.107Z,89.08
2023-11-07T04:14:51.889Z,88.95
2023-11-07T04:15:57.629Z,89.36
2023-11-07T04:17:00.946Z,89.46
2023-11-07T04:18:05.376Z,89.28
2023-11-07T04:19:07.868Z,89.39
2023-11-07T04:20:13.804Z,89.56
2023-11-07T04:21:15.996Z,89.73
2023-11-07T04:22:17.979Z,89.55
2023-11-07T04:23:21.187Z,89.70
2023-11-07T04:24:23.474Z,89.70
2023-11-07T04:25:26.011Z,89.46
2023-11-07T04:26:28.639Z,89.46
2023-11-07T04:27:30.951Z,89.78
2023-11-07T04:28:32.958Z,89.84
2023-11-07T04:29:35.028Z,89.80
2023-11-07T04:30:37.161Z,89.41
2023-11-07T04:31:39.941Z,89.74
2023-11-07T04:32:42.236Z,89.67
2023-11-07T04:33:44.606Z,89.61
2023-11-07T04:34:49.025Z,89.62
2023-11-07T04:35:51.069Z,89.56
2023-11-07T04:36:56.309Z,89.36
2023-11-07T04:37:58.703Z,89.17
2023-11-07T04:39:00.836Z,89.01
2023-11-07T04:40:04.071Z,89.04
2023-11-07T04:41:06.381Z,88.77
2023-11-07T04:42:08.750Z,88.95
2023-11-07T04:43:10.735Z,89.35
2023-11-07T04:44:12.808Z,89.16
2023-11-07T04:45:14.998Z,89.04
2023-11-07T04:46:17.373Z,88.94
2023-11-07T04:47:20.484Z,88.84
2023-11-07T04:48:24.209Z,89.19
2023-11-07T04:49:26.383Z,89.19
2023-11-07T04:50:28.705Z,88.87
2023-11-07T04:51:30.700Z,89.06
2023-11-07T04:52:35.096Z,88.99
2023-11-07T04:53:39.137Z,89.01
2023-11-07T04:54:41.236Z,88.78
2023-11-07T04:55:45.339Z,89.10
2023-11-07T04:56:47.530Z,88.84
2023-11-07T04:57:51.413Z,88.90
2023-11-07T04:58:57.509Z,89.21
2023-11-07T05:00:01.204Z,88.59
2023-11-07T05:01:09.307Z,89.54
2023-11-07T05:02:11.485Z,89.31
2023-11-07T05:03:13.759Z,89.23
2023-11-07T05:04:16.309Z,89.53
2023-11-07T05:05:19.144Z,89.76
2023-11-07T05:06:21.562Z,89.57
2023-11-07T05:07:23.695Z,89.52
2023-11-07T05:08:25.636Z,90.16
2023-11-07T05:09:28.339Z,90.07
2023-11-07T05:10:31.145Z,89.75
2023-11-07T05:11:33.598Z,90.16
2023-11-07T05:12:36.263Z,89.75
2023-11-07T05:13:39.401Z,90.26
2023-11-07T05:14:41.479Z,90.20
2023-11-07T05:15:44.296Z,90.26
2023-11-07T05:16:46.230Z,90.43
2023-11-07T05:17:49.454Z,90.77
2023-11-07T05:18:52.347Z,91.00
2023-11-07T05:19:54.612Z,90.90
2023-11-07T05:20:56.627Z,91.22
2023-11-07T05:21:59.080Z,91.32
2023-11-07T05:23:00.989Z,91.04
2023-11-07T05:24:05.492Z,91.17
2023-11-07T05:25:08.611Z,91.18
2023-11-07T05:26:11.513Z,91.29
2023-11-07T05:27:13.518Z,91.59
2023-11-07T05:28:15.877Z,91.64
2023-11-07T05:29:17.984Z,91.30
2023-11-07T05:30:20.065Z,92.09
2023-11-07T05:31:22.354Z,92.20
2023-11-07T05:32:24.428Z,92.36
2023-11-07T05:33:26.784Z,92.28
2023-11-07T05:34:29.912Z,92.39
2023-11-07T05:35:32.117Z,92.00
2023-11-07T05:36:35.312Z,92.13
2023-11-07T05:37:37.506Z,92.34
2023-11-07T05:38:40.031Z,92.58
2023-11-07T05:39:45.665Z,92.66
2023-11-07T05:40:48.480Z,92.69
2023-11-07T05:41:51.309Z,92.83
2023-11-07T05:42:53.623Z,93.17
2023-11-07T05:43:55.548Z,93.10
2023-11-07T05:44:59.349Z,93.26
2023-11-07T05:46:02.032Z,93.93
2023-11-07T05:47:05.470Z,93.91
2023-11-07T05:48:07.583Z,94.20
2023-11-07T05:49:10.079Z,93.97
2023-11-07T05:50:13.226Z,93.85
2023-11-07T05:51:15.506Z,94.80
2023-11-07T05:52:17.831Z,94.47
2023-11-07T05:53:19.854Z,94.38
2023-11-07T05:54:21.997Z,94.73
2023-11-07T05:55:24.064Z,94.72
2023-11-07T05:56:26.386Z,94.83
2023-11-07T05:57:28.610Z,94.51
2023-11-07T05:58:30.886Z,94.63
2023-11-07T05:59:32.963Z,94.71
2023-11-07T06:00:35.111Z,94.62
2023-11-07T06:01:37.314Z,95.00
2023-11-07T06:02:39.599Z,94.74
2023-11-07T06:03:42.006Z,94.83
2023-11-07T06:04:45.126Z,94.73
2023-11-07T06:05:47.396Z,94.74
2023-11-07T06:06:49.461Z,94.67
2023-11-07T06:07:56.727Z,94.82
2023-11-07T06:08:59.218Z,95.66
2023-11-07T06:10:02.380Z,94.78
2023-11-07T06:11:05.811Z,95.07
2023-11-07T06:12:10.800Z,95.10
2023-11-07T06:13:14.371Z,94.66
2023-11-07T06:14:17.683Z,94.82
2023-11-07T06:15:20.737Z,95.09
2023-11-07T06:16:22.929Z,95.11
2023-11-07T06:17:24.945Z,95.19
2023-11-07T06:18:27.332Z,95.07
2023-11-07T06:19:30.165Z,95.36
2023-11-07T06:20:32.241Z,95.30
2023-11-07T06:21:34.470Z,94.86
2023-11-07T06:22:38.233Z,95.14
2023-11-07T06:23:40.262Z,95.07
2023-11-07T06:24:43.381Z,94.71
2023-11-07T06:25:46.279Z,94.91
2023-11-07T06:26:48.591Z,95.37
2023-11-07T06:27:52.488Z,95.08
2023-11-07T06:28:55.274Z,94.95
2023-11-07T06:29:59.986Z,95.11
2023-11-07T06:31:02.193Z,95.02
2023-11-07T06:32:05.014Z,94.63
2023-11-07T06:33:07.093Z,94.57
2023-11-07T06:34:12.023Z,94.60
2023-11-07T06:35:16.087Z,94.68
2023-11-07T06:36:18.244Z,95.22
2023-11-07T06:37:20.523Z,95.32
2023-11-07T06:38:27.001Z,95.07
2023-11-07T06:39:29.636Z,95.05
2023-11-07T06:40:31.788Z,95.78
2023-11-07T06:41:34.068Z,95.32
2023-11-07T06:42:36.036Z,95.17
2023-11-07T06:43:39.143Z,95.36
2023-11-07T06:44:42.296Z,95.69
2023-11-07T06:45:44.453Z,95.80
2023-11-07T06:46:46.503Z,95.84
2023-11-07T06:47:49.238Z,96.30
2023-11-07T06:48:53.316Z,95.85
2023-11-07T06:49:56.496Z,96.16
2023-11-07T06:50:58.968Z,96.01
2023-11-07T06:52:01.129Z,96.31
2023-11-07T06:53:03.264Z,96.44
2023-11-07T06:54:05.997Z,96.77
2023-11-07T06:55:13.184Z,96.61
2023-11-07T06:56:15.639Z,96.88
2023-11-07T06:57:17.893Z,96.71
2023-11-07T06:58:20.155Z,96.95
2023-11-07T06:59:22.174Z,97.49
2023-11-07T07:00:27.078Z,97.04
2023-11-07T07:01:29.786Z,97.08
2023-11-07T07:02:31.908Z,97.18
2023-11-07T07:03:34.929Z,97.01
2023-11-07T07:04:36.956Z,96.78
2023-11-07T07:05:38.951Z,97.08
2023-11-07T07:06:41.873Z,97.54
2023-11-07T07:07:43.926Z,97.51
2023-11-07T07:08:46.097Z,97.24
2023-11-07T07:09:48.075Z,97.56
2023-11-07T07:10:50.910Z,97.81
2023-11-07T07:11:53.724Z,97.46
2023-11-07T07:12:55.740Z,98.13
2023-11-07T07:13:58.992Z,98.02
2023-11-07T07:15:01.206Z,98.32
2023-11-07T07:16:04.898Z,98.43
2023-11-07T07:17:08.765Z,98.51
2023-11-07T07:18:11.787Z,98.51
2023-11-07T07:19:19.119Z,98.53
2023-11-07T07:20:21.350Z,98.60
2023-11-07T07:21:23.534Z,98.72
2023-11-07T07:22:29.117Z,98.57
2023-11-07T07:23:34.211Z,98.95
2023-11-07T07:24:36.538Z,99.29
2023-11-07T07:25:39.084Z,99.42
2023-11-07T07:26:42.641Z,99.13
2023-11-07T07:27:48.610Z,99.12
2023-11-07T07:28:53.849Z,99.25
2023-11-07T07:29:58.449Z,99.37
2023-11-07T07:31:01.218Z,98.98
2023-11-07T07:32:04.608Z,98.95
2023-11-07T07:33:08.019Z,98.83
2023-11-07T07:34:11.208Z,99.35
2023-11-07T07:35:16.652Z,98.72
2023-11-07T07:36:18.945Z,98.89
2023-11-07T07:37:22.280Z,99.55
2023-11-07T07:38:26.264Z,99.65
2023-11-07T07:39:32.091Z,99.53
2023-11-07T07:40:35.080Z,99.47
2023-11-07T07:41:38.062Z,99.36
2023-11-07T07:42:40.125Z,99.31
2023-11-07T07:43:42.120Z,99.17
2023-11-07T07:44:45.267Z,99.55
2023-11-07T07:45:47.370Z,99.60
2023-11-07T07:46:52.428Z,99.57
2023-11-07T07:47:54.856Z,99.69
2023-11-07T07:48:58.108Z,100.00
2023-11-07T07:50:00.493Z,100.00
2023-11-07T07:51:07.907Z,100.00
2023-11-07T07:52:10.636Z,99.91
2023-11-07T07:53:16.615Z,100.00
2023-11-07T07:54:36.348Z,100.00
2023-11-07T07:55:46.148Z,100.00
2023-11-07T07:56:49.647Z,100.00
2023-11-07T07:57:51.720Z,99.82
2023-11-07T07:58:53.699Z,100.00
2023-11-07T07:59:57.706Z,100.00
2023-11-07T08:00:59.879Z,100.00
2023-11-07T08:02:02.765Z,100.00
2023-11-07T08:03:10.292Z,100.00
2023-11-07T08:04:13.860Z,99.93
2023-11-07T08:05:18.730Z,100.00
2023-11-07T08:06:21.540Z,100.00
2023-11-07T08:07:23.542Z,100.00
2023-11-07T08:08:25.604Z,100.00
2023-11-07T08:09:27.874Z,100.00
2023-11-07T08:10:30.063Z,100.00
2023-11-07T08:11:31.998Z,100.00
2023-11-07T08:12:37.044Z,100.00
2023-11-07T08:13:39.079Z,100.00
2023-11-07T08:14:42.488Z,100.00
2023-11-07T08:15:45.442Z,100.00
2023-11-07T08:16:47.691Z,100.00
2023-11-07T08:17:51.936Z,100.00
2023-11-07T08:18:55.071Z,100.00
2023-11-07T08:19:57.105Z,100.00
2023-11-07T08:20:59.216Z,99.84
2023-11-07T08:22:02.108Z,100.00
2023-11-07T08:23:06.332Z,100.00
2023-11-07T08:24:09.527Z,100.00
2023-11-07T08:25:12.161Z,99.97
2023-11-07T08:26:15.093Z,100.00
2023-11-07T08:27:17.422Z,100.00
2023-11-07T08:28:19.434Z,99.87
2023-11-07T08:29:22.422Z,99.53
2023-11-07T08:30:25.032Z,99.52
2023-11-07T08:31:27.626Z,99.20
2023-11-07T08:32:31.455Z,99.32
2023-11-07T08:33:33.717Z,99.75
2023-11-07T08:34:35.809Z,99.64
2023-11-07T08:35:38.156Z,99.49
2023-11-07T08:36:48.299Z,99.73
2023-11-07T08:37:57.565Z,99.22
2023-11-07T08:38:59.489Z,99.39
2023-11-07T08:40:02.325Z,99.38
2023-11-07T08:41:05.182Z,99.62
2023-11-07T08:42:07.503Z,99.54
2023-11-07T08:43:10.631Z,99.58
2023-11-07T08:44:12.750Z,99.53
2023-11-07T08:45:22.917Z,99.80
2023-11-07T08:46:26.199Z,99.64
2023-11-07T08:47:30.122Z,99.71
2023-11-07T08:48:32.454Z,99.67
2023-11-07T08:49:35.768Z,99.58
2023-11-07T08:50:38.767Z,99.80
2023-11-07T08:51:40.700Z,99.61
2023-11-07T08:52:43.190Z,100.00
2023-11-07T08:53:45.315Z,99.48
2023-11-07T08:54:47.480Z,99.75
2023-11-07T08:55:51.601Z,99.60
2023-11-07T08:56:53.670Z,99.54
2023-11-07T08:57:55.786Z,99.83
2023-11-07T08:58:57.876Z,99.68
2023-11-07T09:00:00.373Z,99.74
2023-11-07T09:01:03.039Z,100.00
2023-11-07T09:02:05.148Z,100.00
2023-11-07T09:03:10.196Z,100.00
2023-11-07T09:04:12.324Z,100.00
2023-11-07T09:05:14.726Z,100.00
2023-11-07T09:06:16.860Z,100.00
2023-11-07T09:07:20.485Z,100.00
2023-11-07T09:08:22.447Z,100.00
2023-11-07T09:09:25.046Z,100.00
2023-11-07T09:10:27.241Z,100.00
2023-11-07T09:11:29.421Z,100.00
2023-11-07T09:12:31.722Z,100.00
2023-11-07T09:13:35.124Z,100.00
2023-11-07T09:14:37.394Z,100.00
2023-11-07T09:15:40.916Z,100.00
2023-11-07T09:16:43.148Z,100.00
2023-11-07T09:17:45.327Z,100.00
2023-11-07T09:18:48.055Z,100.00
2023-11-07T09:19:50.174Z,100.00
2023-11-07T09:20:52.428Z,100.00
2023-11-07T09:21:54.641Z,100.00
2023-11-07T09:22:56.651Z,100.00
2023-11-07T09:23:59.225Z,100.00
2023-11-07T09:25:01.242Z,100.00
2023-11-07T09:26:04.552Z,100.00
2023-11-07T09:27:09.362Z,100.00
2023-11-07T09:28:11.834Z,100.00
2023-11-07T09:29:13.822Z,100.00
2023-11-07T09:30:16.512Z,100.00
2023-11-07T09:31:19.943Z,100.00
2023-11-07T09:32:22.025Z,100.00
2023-11-07T09:33:24.241Z,100.00
2023-11-07T09:34:26.643Z,100.00
2023-11-07T09:35:28.662Z,100.00
2023-11-07T09:36:31.719Z,100.00
2023-11-07T09:37:43.730Z,100.00
2023-11-07T09:38:49.704Z,100.00
2023-11-07T09:39:55.427Z,100.00
2023-11-07T09:41:00.567Z,100.00
2023-11-07T09:42:09.857Z,100.00
2023-11-07T09:43:13.618Z,100.00
2023-11-07T09:44:15.976Z,100.00
2023-11-07T09:45:22.469Z,100.00
2023-11-07T09:46:26.009Z,100.00
2023-11-07T09:47:30.285Z,100.00
2023-11-07T09:48:32.268Z,100.00
2023-11-07T09:49:35.030Z,100.00
2023-11-07T09:50:42.913Z,100.00
2023-11-07T09:51:48.350Z,100.00
2023-11-07T09:52:52.643Z,100.00
2023-11-07T09:53:57.936Z,100.00
2023-11-07T09:55:02.288Z,100.00
2023-11-07T09:56:06.960Z,99.99
2023-11-07T09:57:10.353Z,100.00
2023-11-07T09:58:21.288Z,100.00
2023-11-07T09:59:39.514Z,100.00
2023-11-07T10:00:45.419Z,100.00
2023-11-07T10:01:49.165Z,100.00
2023-11-07T10:02:51.653Z,100.00
2023-11-07T10:03:54.259Z,100.00
2023-11-07T10:04:57.343Z,100.00
2023-11-07T10:06:00.427Z,100.00
2023-11-07T10:07:02.433Z,100.00
2023-11-07T10:08:04.739Z,100.00
2023-11-07T10:09:06.789Z,100.00
2023-11-07T10:10:11.887Z,100.00
2023-11-07T10:11:15.603Z,100.00
2023-11-07T10:12:18.844Z,100.00
2023-11-07T10:13:20.894Z,100.00
2023-11-07T10:14:23.268Z,100.00
2023-11-07T10:15:26.412Z,100.00
2023-11-07T10:16:39.906Z,100.00
2023-11-07T10:17:42.781Z,100.00
2023-11-07T10:18:50.331Z,100.00
2023-11-07T10:20:06.970Z,100.00
2023-11-07T10:21:09.723Z,100.00
2023-11-07T10:22:11.657Z,100.00
2023-11-07T10:23:13.999Z,100.00
2023-11-07T10:24:18.202Z,100.00
2023-11-07T10:25:37.654Z,100.00
2023-11-07T10:27:00.768Z,100.00
2023-11-07T10:28:05.453Z,100.00
2023-11-07T10:29:19.173Z,100.00
2023-11-07T10:30:22.504Z,100.00
2023-11-07T10:31:25.038Z,100.00
2023-11-07T10:32:27.292Z,100.00
2023-11-07T10:33:33.959Z,100.00
2023-11-07T10:34:37.515Z,100.00
2023-11-07T10:35:55.611Z,100.00
2023-11-07T10:37:00.644Z,100.00
2023-11-07T10:38:13.754Z,100.00
2023-11-07T10:39:18.988Z,100.00
2023-11-07T10:40:21.851Z,100.00
2023-11-07T10:41:27.982Z,100.00
2023-11-07T10:42:32.432Z,100.00
2023-11-07T10:43:36.679Z,100.00
2023-11-07T10:44:38.975Z,100.00
2023-11-07T10:45:42.758Z,100.00
2023-11-07T10:46:45.945Z,100.00
2023-11-07T10:47:50.303Z,100.00
2023-11-07T10:48:55.125Z,100.00
2023-11-07T10:49:59.555Z,100.00
2023-11-07T10:51:05.502Z,100.00
2023-11-07T10:52:07.991Z,100.00
2023-11-07T10:53:10.074Z,100.00
2023-11-07T10:54:13.870Z,100.00
2023-11-07T10:55:16.543Z,100.00
2023-11-07T10:56:22.365Z,100.00
2023-11-07T10:57:32.650Z,100.00
2023-11-07T10:58:37.397Z,100.00
2023-11-07T10:59:48.122Z,100.00
2023-11-07T11:00:51.719Z,100.00
2023-11-07T11:01:55.954Z,100.00
2023-11-07T11:02:58.842Z,100.00
2023-11-07T11:04:01.591Z,100.00
2023-11-07T11:05:03.808Z,100.00
2023-11-07T11:06:07.822Z,100.00
2023-11-07T11:07:11.443Z,100.00
2023-11-07T11:08:17.500Z,100.00
2023-11-07T11:09:25.371Z,100.00
2023-11-07T11:10:29.412Z,100.00
2023-11-07T11:11:32.758Z,100.00
2023-11-07T11:12:38.112Z,100.00
2023-11-07T11:13:43.222Z,100.00
2023-11-07T11:14:47.161Z,100.00
2023-11-07T11:15:49.631Z,100.00
2023-11-07T11:16:53.148Z,100.00
2023-11-07T11:18:07.138Z,100.00
2023-11-07T11:19:40.024Z,100.00
2023-11-07T11:20:42.103Z,100.00
2023-11-07T11:22:10.530Z,100.00
2023-11-07T11:23:23.115Z,100.00
2023-11-07T11:24:31.063Z,100.00
2023-11-07T11:25:40.200Z,100.00
2023-11-07T11:27:01.761Z,100.00
2023-11-07T11:28:06.852Z,100.00
2023-11-07T11:29:28.440Z,100.00
2023-11-07T11:30:36.383Z,100.00
2023-11-07T11:31:38.497Z,100.00
2023-11-07T11:32:45.182Z,100.00
2023-11-07T11:33:48.191Z,100.00
2023-11-07T11:34:51.341Z,100.00
2023-11-07T11:35:53.656Z,100.00
2023-11-07T11:37:00.989Z,100.00
2023-11-07T11:38:21.210Z,100.00
2023-11-07T11:39:38.681Z,100.00
2023-11-07T11:40:52.740Z,100.00
2023-11-07T11:41:59.121Z,100.00
2023-11-07T11:43:04.619Z,100.00
2023-11-07T11:44:14.560Z,100.00
2023-11-07T11:45:39.958Z,100.00
2023-11-07T11:46:46.766Z,100.00
2023-11-07T11:47:55.642Z,100.00
2023-11-07T11:49:08.901Z,100.00
2023-11-07T11:50:19.306Z,100.00
2023-11-07T11:51:35.199Z,100.00
2023-11-07T11:52:37.720Z,100.00
2023-11-07T11:53:42.094Z,100.00
2023-11-07T11:54:52.422Z,100.00
2023-11-07T11:56:00.239Z,100.00
2023-11-07T11:57:02.595Z,100.00
2023-11-07T11:58:17.987Z,100.00
2023-11-07T11:59:27.421Z,100.00
2023-11-07T12:00:41.273Z,100.00
2023-11-07T12:02:02.334Z,100.00
2023-11-07T12:03:17.723Z,100.00
2023-11-07T12:04:42.650Z,100.00
2023-11-07T12:06:10.295Z,100.00
2023-11-07T12:07:15.815Z,100.00
2023-11-07T12:08:33.976Z,100.00
2023-11-07T12:09:36.558Z,100.00
2023-11-07T12:11:05.565Z,100.00
2023-11-07T12:12:11.955Z,100.00
2023-11-07T12:13:14.606Z,100.00
2023-11-07T12:14:18.430Z,100.00
2023-11-07T12:15:26.292Z,100.00
2023-11-07T12:16:28.440Z,100.00
2023-11-07T12:17:44.360Z,100.00
2023-11-07T12:18:49.458Z,100.00
2023-11-07T12:20:08.101Z,100.00
2023-11-07T12:21:10.661Z,100.00
2023-11-07T12:22:12.740Z,100.00
2023-11-07T12:23:16.890Z,100.00
2023-11-07T12:24:21.312Z,100.00
2023-11-07T12:25:23.519Z,100.00
2023-11-07T12:26:40.291Z,100.00
2023-11-07T12:27:43.199Z,100.00
2023-11-07T12:28:45.760Z,100.00
2023-11-07T12:29:47.960Z,100.00
2023-11-07T12:30:57.194Z,100.00
2023-11-07T12:31:59.310Z,100.00
2023-11-07T12:33:15.809Z,100.00
2023-11-07T12:34:29.835Z,100.00
2023-11-07T12:35:32.413Z,100.00
2023-11-07T12:36:39.556Z,100.00
2023-11-07T12:37:41.812Z,100.00
2023-11-07T12:38:44.415Z,100.00
2023-11-07T12:39:49.708Z,100.00
2023-11-07T12:40:51.961Z,100.00
2023-11-07T12:41:53.997Z,100.00
2023-11-07T12:42:57.659Z,100.00
2023-11-07T12:44:15.514Z,100.00
2023-11-07T12:45:20.468Z,100.00
2023-11-07T12:46:24.666Z,100.00
2023-11-07T12:47:26.788Z,100.00
2023-11-07T12:48:29.201Z,100.00
2023-11-07T12:49:37.671Z,100.00
2023-11-07T12:50:46.253Z,100.00
2023-11-07T12:51:49.225Z,100.00
2023-11-07T12:53:06.718Z,100.00
2023-11-07T12:54:08.910Z,100.00
2023-11-07T12:55:27.994Z,100.00
2023-11-07T12:56:30.138Z,100.00
2023-11-07T12:57:38.099Z,100.00
2023-11-07T12:58:40.421Z,100.00
2023-11-07T13:00:00.082Z,100.00
2023-11-07T13:01:05.965Z,100.00
2023-11-07T13:02:08.120Z,100.00
2023-11-07T13:03:11.631Z,100.00
2023-11-07T13:04:19.112Z,100.00
2023-11-07T13:05:21.717Z,100.00
2023-11-07T13:06:24.022Z,100.00
2023-11-07T13:07:29.073Z,100.00
2023-11-07T13:08:34.182Z,100.00
2023-11-07T13:09:36.451Z,100.00
2023-11-07T13:10:39.248Z,100.00
2023-11-07T13:11:42.164Z,100.00
2023-11-07T13:12:45.782Z,100.00
2023-11-07T13:13:48.866Z,100.00
2023-11-07T13:14:50.914Z,100.00
2023-11-07T13:15:53.011Z,100.00
2023-11-07T13:16:55.119Z,100.00
2023-11-07T13:18:00.472Z,100.00
2023-11-07T13:19:02.744Z,100.00
2023-11-07T13:20:14.892Z,100.00
2023-11-07T13:21:21.549Z,100.00
2023-11-07T13:22:24.865Z,100.00
2023-11-07T13:23:26.884Z,100.00
2023-11-07T13:24:29.034Z,100.00
2023-11-07T13:25:31.127Z,100.00
2023-11-07T13:26:33.312Z,100.00
2023-11-07T13:27:35.458Z,100.00
2023-11-07T13:28:38.529Z,100.00
2023-11-07T13:29:40.460Z,100.00
2023-11-07T13:30:43.056Z,100.00
2023-11-07T13:31:45.657Z,100.00
2023-11-07T13:32:47.782Z,100.00
2023-11-07T13:33:50.148Z,100.00
2023-11-07T13:34:52.647Z,100.00
2023-11-07T13:35:54.890Z,100.00